Time;durP1;ratioP1;P1;durP2;ratioP2;P2;SDS_P1;SDS_P2;PMS_P1;PMS_P2;Temp;Humidity;BMP_temperature;BMP_pressure;BME280_temperature;BME280_humidity;BME280_pressure;Samples;Min_cycle;Max_cycle;Signal;HPM_P1;HPM_P2
2022/08/12 00:56:04;;;;;;;1.83;1.00;;;;;;;22.26;42.49;100699.81;18239824;32;20112;-56
2022/08/12 01:16:30;;;;;;;1.37;1.07;;;;;;;21.72;43.80;100696.03;18247419;32;20094;-56
2022/08/12 01:26:36;;;;;;;1.70;1.02;;;;;;;21.94;43.23;100699.47;18240159;32;20098;-56
2022/08/12 01:36:42;;;;;;;2.08;1.10;;;;;;;21.82;43.80;100701.78;18245997;32;20107;-55
2022/08/12 01:46:56;;;;;;;0.98;0.98;;;;;;;21.66;43.94;100706.00;18245496;32;20094;-56
2022/08/12 01:57:09;;;;;;;2.50;1.17;;;;;;;21.72;43.83;100690.72;18245616;32;20082;-55
2022/08/12 02:18:04;;;;;;;1.90;1.12;;;;;;;21.41;45.41;100678.72;18244493;32;20082;-55
2022/08/12 02:28:10;;;;;;;1.83;1.20;;;;;;;21.38;44.70;100665.59;18244524;32;20098;-55
2022/08/12 02:38:14;;;;;;;1.98;1.30;;;;;;;21.17;45.50;100654.09;18244572;32;20098;-56
2022/08/12 02:48:25;;;;;;;3.97;1.30;;;;;;;21.02;45.43;100652.94;18240410;32;20109;-55
2022/08/12 02:58:35;;;;;;;3.15;1.23;;;;;;;21.02;45.64;100647.66;18240096;32;20089;-55
2022/08/12 03:08:49;;;;;;;1.30;1.10;;;;;;;20.90;46.34;100641.94;18239781;32;20098;-56
2022/08/12 03:18:56;;;;;;;1.50;1.20;;;;;;;20.96;45.55;100638.16;18239011;32;20580;-55
2022/08/12 03:29:05;;;;;;;2.67;1.35;;;;;;;20.90;45.74;100633.97;18238999;32;20112;-55
2022/08/12 03:39:24;;;;;;;3.83;1.48;;;;;;;20.97;45.53;100647.00;18226644;32;449805;-55
2022/08/12 04:13:14;;;;;;;3.97;1.52;;;;;;;20.80;46.24;100648.50;18241900;32;20458;-55
2022/08/12 04:20:55;;;;;;;1.52;1.20;;;;;;;20.79;46.02;100650.28;18241854;32;20097;-55
2022/08/12 04:31:00;;;;;;;1.35;1.02;;;;;;;21.04;45.51;100651.97;18241317;32;20114;-55
2022/08/12 04:41:04;;;;;;;2.97;1.70;;;;;;;20.96;45.89;100661.16;18249130;32;20101;-55
2022/08/12 04:51:09;;;;;;;3.62;1.23;;;;;;;21.10;45.78;100666.75;18240380;32;20746;-55
2022/08/12 05:01:13;;;;;;;22.92;2.42;;;;;;;21.38;45.12;100676.22;18239645;32;20136;-55
2022/08/12 05:11:21;;;;;;;3.60;1.10;;;;;;;21.66;44.88;100677.66;18239522;32;20391;-55
2022/08/12 05:21:25;;;;;;;1.73;1.05;;;;;;;22.11;43.45;100685.44;18238961;32;20094;-55
2022/08/12 05:31:29;;;;;;;5.80;1.75;;;;;;;22.34;43.33;100686.16;18238141;32;20094;-55
2022/08/12 05:41:50;;;;;;;2.40;1.20;;;;;;;22.61;43.09;100701.78;18237534;32;20108;-55
2022/08/12 05:51:55;;;;;;;5.62;1.30;;;;;;;22.75;42.65;100701.09;18237163;32;20113;-55
2022/08/12 06:02:02;;;;;;;4.62;1.15;;;;;;;22.93;43.37;100707.31;18236539;32;20098;-55
2022/08/12 06:12:22;;;;;;;3.67;1.30;;;;;;;23.60;41.95;100698.69;18237541;32;20138;-55
2022/08/12 06:22:25;;;;;;;1.80;1.20;;;;;;;24.17;39.44;100702.81;18244806;32;20086;-55
2022/08/12 06:32:30;;;;;;;2.50;1.20;;;;;;;25.05;36.87;100695.22;18244421;32;20163;-55
2022/08/12 06:42:50;;;;;;;1.80;1.10;;;;;;;24.04;39.27;100702.56;18243323;32;20108;-55
2022/08/12 06:52:54;;;;;;;4.28;3.05;;;;;;;25.28;36.76;100692.97;18240758;32;20094;-55
2022/08/12 07:02:58;;;;;;;2.42;1.20;;;;;;;25.88;35.83;100696.50;18246665;32;20116;-56
2022/08/12 07:13:20;;;;;;;3.50;1.53;;;;;;;26.50;34.73;100682.91;18281440;32;20122;-56
2022/08/12 07:23:24;;;;;;;3.53;1.40;;;;;;;25.93;35.70;100684.69;18302862;32;21186;-56
2022/08/12 07:33:30;;;;;;;8.65;3.85;;;;;;;27.21;33.58;100682.72;18305970;32;20108;-56
2022/08/12 07:43:35;;;;;;;3.25;1.80;;;;;;;27.86;32.40;100689.00;18305157;32;20129;-56
2022/08/12 07:53:42;;;;;;;5.35;1.67;;;;;;;28.41;31.75;100687.81;18276447;32;20142;-56
2022/08/12 08:14:27;;;;;;;2.72;1.45;;;;;;;26.81;34.13;100679.06;18303602;32;20120;-56
2022/08/12 08:24:31;;;;;;;2.87;1.50;;;;;;;28.62;31.38;100675.47;18303663;32;20108;-56
2022/08/12 08:34:36;;;;;;;2.87;1.45;;;;;;;29.11;30.05;100669.25;18302593;32;20453;-56
2022/08/12 08:44:57;;;;;;;3.53;1.65;;;;;;;28.51;31.29;100662.00;18303450;32;20117;-56
2022/08/12 08:55:02;;;;;;;3.42;1.60;;;;;;;29.68;29.28;100653.22;18303701;32;20120;-55
2022/08/12 09:05:06;;;;;;;1.98;1.50;;;;;;;29.11;30.16;100648.59;18302432;32;20631;-56
2022/08/12 09:15:20;;;;;;;3.42;1.60;;;;;;;29.54;30.00;100654.31;18302120;32;20098;-55
2022/08/12 09:25:25;;;;;;;2.15;1.55;;;;;;;30.10;29.10;100636.47;18301620;32;20119;-55
2022/08/12 09:35:43;;;;;;;4.18;1.58;;;;;;;30.63;28.31;100624.94;18301100;32;20090;-55
2022/08/12 09:45:49;;;;;;;2.03;1.33;;;;;;;30.46;28.07;100629.87;18287664;32;20508;-56
2022/08/12 09:56:16;;;;;;;2.45;1.40;;;;;;;30.54;27.50;100610.41;18308827;32;20093;-56
2022/08/12 10:06:41;;;;;;;2.78;1.50;;;;;;;30.50;29.45;100605.41;18264710;32;20124;-56
2022/08/12 10:16:59;;;;;;;3.42;1.58;;;;;;;32.13;25.37;100591.38;18279401;32;20484;-55
2022/08/12 10:37:45;;;;;;;5.50;1.65;;;;;;;32.23;26.25;100583.28;18233524;32;20144;-56
2022/08/12 10:48:09;;;;;;;2.10;1.40;;;;;;;30.70;28.18;100588.44;18221217;32;20176;-56
2022/08/12 10:58:29;;;;;;;1.67;1.10;;;;;;;29.08;29.47;100595.94;18233361;32;20402;-55
2022/08/12 11:08:36;;;;;;;6.62;1.45;;;;;;;30.65;26.16;100584.44;18254551;32;20379;-55
2022/08/12 11:18:49;;;;;;;4.97;1.45;;;;;;;28.84;29.25;100587.09;18306747;32;20082;-55
2022/08/12 11:28:58;;;;;;;1.37;1.12;;;;;;;29.68;28.98;100592.19;18305887;32;20128;-55
2022/08/12 11:39:23;;;;;;;4.05;1.50;;;;;;;27.71;32.43;100583.69;18266340;32;20094;-56
2022/08/12 11:49:46;;;;;;;4.05;1.45;;;;;;;28.65;31.72;100578.59;18253615;32;20104;-55
2022/08/12 11:59:55;;;;;;;4.28;1.60;;;;;;;29.92;29.78;100561.59;18242204;32;20492;-55
2022/08/12 12:10:20;;;;;;;3.47;1.35;;;;;;;29.90;29.10;100559.03;18240913;32;20089;-55
2022/08/12 12:20:24;;;;;;;2.03;1.35;;;;;;;31.75;27.25;100547.09;18292743;32;20123;-55
2022/08/12 12:30:32;;;;;;;1.75;1.20;;;;;;;31.55;27.07;100552.44;18368833;32;20139;-56
2022/08/12 12:40:39;;;;;;;3.50;1.55;;;;;;;31.98;26.62;100528.84;18367697;32;20127;-56
2022/08/12 12:50:43;;;;;;;2.53;1.20;;;;;;;33.16;24.84;100512.53;18365766;32;20097;-56
2022/08/12 13:00:58;;;;;;;2.45;1.30;;;;;;;32.94;24.59;100501.06;18366960;32;20097;-55
2022/08/12 13:11:23;;;;;;;3.17;1.67;;;;;;;32.03;25.39;100499.59;18365673;32;20103;-56
2022/08/12 13:32:04;;;;;;;3.17;1.37;;;;;;;32.33;25.77;100459.91;18373708;32;20146;-56
2022/08/12 13:42:28;;;;;;;2.70;1.27;;;;;;;32.32;24.89;100449.25;18373661;32;20120;-55
2022/08/12 13:52:32;;;;;;;2.72;1.30;;;;;;;31.42;26.56;100453.75;18369679;32;20468;-56
2022/08/12 14:02:37;;;;;;;3.87;1.30;;;;;;;31.63;25.92;100452.78;18372444;32;20111;-56
2022/08/12 14:12:40;;;;;;;8.63;1.73;;;;;;;31.44;25.94;100450.91;18372194;32;20112;-56
2022/08/12 14:22:59;;;;;;;3.37;1.50;;;;;;;31.73;25.60;100439.31;18371143;32;20115;-56
2022/08/12 14:33:23;;;;;;;2.55;1.37;;;;;;;31.83;25.36;100428.53;18370663;32;20120;-56
2022/08/12 14:43:32;;;;;;;3.67;1.48;;;;;;;32.56;24.96;100418.25;18370853;32;20101;-55
2022/08/12 14:53:55;;;;;;;4.47;1.52;;;;;;;32.92;24.35;100394.94;18371155;32;20109;-55
2022/08/12 15:04:23;;;;;;;7.22;1.50;;;;;;;32.61;25.57;100399.72;18291621;32;20116;-55
2022/08/12 15:14:28;;;;;;;;;;;;;;;32.29;25.66;100395.53;18296023;32;20086;-56
2022/08/12 15:24:35;;;;;;;1.77;1.17;;;;;;;32.13;25.83;100383.47;18243211;32;19990;-56
2022/08/12 15:34:39;;;;;;;2.75;1.20;;;;;;;32.15;26.28;100381.47;18259021;32;20101;-55
2022/08/12 15:44:46;;;;;;;2.80;1.30;;;;;;;32.05;26.25;100378.81;18242559;32;20094;-56
2022/08/12 15:54:50;;;;;;;4.43;1.52;;;;;;;31.36;26.30;100361.78;18240270;32;20093;-56
2022/08/12 16:04:55;;;;;;;2.20;1.23;;;;;;;31.27;26.36;100352.66;18239582;32;20113;-56
2022/08/12 16:15:00;;;;;;;3.80;1.00;;;;;;;31.37;26.61;100348.13;18241460;32;20505;-56
2022/08/12 16:25:06;;;;;;;2.33;1.40;;;;;;;31.24;26.79;100352.94;18241005;32;20108;-56
2022/08/12 16:35:10;;;;;;;22.48;3.62;;;;;;;31.01;26.59;100336.97;18237961;32;20098;-56
2022/08/12 16:45:21;;;;;;;3.95;1.30;;;;;;;30.61;27.40;100336.00;18240808;32;20105;-58
2022/08/12 16:55:34;;;;;;;3.08;1.58;;;;;;;30.39;27.78;100323.56;18249066;32;20143;-55
2022/08/12 17:05:48;;;;;;;4.62;1.30;;;;;;;30.25;28.31;100335.53;18301825;32;20102;-55
2022/08/12 17:15:52;;;;;;;6.60;1.45;;;;;;;30.00;28.48;100306.19;18299359;32;20111;-55
2022/08/12 17:26:10;;;;;;;8.20;1.70;;;;;;;29.78;28.69;100307.19;18302165;32;20108;-55
2022/08/12 17:36:13;;;;;;;2.62;1.30;;;;;;;29.58;29.71;100317.81;18301468;32;20127;-55
2022/08/12 17:46:18;;;;;;;3.97;1.60;;;;;;;29.10;31.15;100308.28;18300810;32;20184;-55
2022/08/12 17:56:36;;;;;;;5.37;2.20;;;;;;;28.61;32.42;100313.94;18300278;32;20143;-55
2022/08/12 18:06:45;;;;;;;2.20;1.50;;;;;;;28.07;33.43;100316.31;18300258;32;20458;-55
2022/08/12 18:16:53;;;;;;;4.25;1.60;;;;;;;27.45;35.52;100328.16;18308505;32;20151;-55
2022/08/12 18:26:59;;;;;;;6.50;1.77;;;;;;;26.65;37.06;100333.84;18309026;32;20121;-55
2022/08/12 18:37:27;;;;;;;7.60;2.30;;;;;;;26.15;38.75;100334.59;18308608;32;20112;-55
2022/08/12 18:47:46;;;;;;;4.28;1.52;;;;;;;25.46;40.46;100340.09;18307141;32;20109;-55
2022/08/12 18:57:54;;;;;;;14.70;2.28;;;;;;;25.29;40.72;100344.72;18308731;32;20116;-55
2022/08/12 19:08:12;;;;;;;7.78;2.25;;;;;;;24.93;40.71;100348.81;18308202;32;20089;-55
2022/08/12 19:18:15;;;;;;;3.45;1.67;;;;;;;24.53;41.73;100355.69;18306663;32;20094;-55
2022/08/12 19:28:26;;;;;;;4.05;1.77;;;;;;;24.35;42.17;100359.47;18305087;32;20117;-55
2022/08/12 19:38:38;;;;;;;5.05;2.08;;;;;;;24.05;42.73;100357.72;18304757;32;20109;-55
2022/08/12 19:49:02;;;;;;;7.30;3.57;;;;;;;23.60;44.60;100360.31;18306058;32;20117;-55
2022/08/12 20:09:49;;;;;;;5.43;2.20;;;;;;;23.12;45.90;100363.81;18305435;32;20094;-55
2022/08/12 20:19:53;;;;;;;5.05;2.35;;;;;;;22.89;46.76;100367.75;18298453;32;20101;-54
2022/08/12 20:30:19;;;;;;;6.45;2.62;;;;;;;22.76;47.27;100365.72;18241943;32;20120;-55
2022/08/12 20:40:40;;;;;;;6.47;2.65;;;;;;;22.31;48.10;100363.63;18242151;32;20510;-55
2022/08/12 20:50:51;;;;;;;7.93;2.67;;;;;;;22.24;48.57;100356.03;18240853;32;20169;-55
2022/08/12 21:00:58;;;;;;;8.85;2.75;;;;;;;22.05;49.96;100372.91;18264845;32;20116;-55
2022/08/12 21:11:03;;;;;;;4.53;2.12;;;;;;;21.88;51.09;100389.72;18303238;32;20086;-55
2022/08/12 21:21:07;;;;;;;6.53;2.70;;;;;;;21.81;51.52;100381.22;18302585;32;20358;-54
2022/08/12 21:31:30;;;;;;;8.27;2.80;;;;;;;21.91;50.79;100376.31;18301938;32;20089;-55
2022/08/12 21:41:55;;;;;;;5.22;2.53;;;;;;;21.61;51.91;100368.87;18302281;32;20098;-54
2022/08/12 21:52:02;;;;;;;7.45;2.80;;;;;;;21.78;51.67;100378.72;18299505;32;20115;-54
2022/08/12 22:06:16;;;;;;;5.35;2.30;;;;;;;21.66;51.84;100382.78;18308662;32;20151;-54
2022/08/12 22:12:49;;;;;;;;;;;;;;;21.40;52.54;100384.06;18255402;32;20078;-54
2022/08/12 22:22:53;;;;;;;5.53;2.35;;;;;;;21.66;52.28;100414.66;18246326;32;19989;-54
2022/08/12 22:33:02;;;;;;;5.57;2.30;;;;;;;21.36;52.38;100404.59;18244743;32;20113;-54
2022/08/12 22:53:32;;;;;;;4.10;1.90;;;;;;;21.01;53.11;100396.47;18243795;32;20112;-54
2022/08/12 23:03:39;;;;;;;4.00;1.95;;;;;;;21.01;53.07;100385.87;18244155;32;20375;-54
2022/08/12 23:14:00;;;;;;;4.78;1.87;;;;;;;21.01;52.48;100380.56;18243830;32;20097;-54
2022/08/12 23:24:06;;;;;;;4.57;2.00;;;;;;;21.42;50.83;100391.00;18241598;32;20107;-54
2022/08/12 23:34:16;;;;;;;4.03;2.00;;;;;;;21.70;49.19;100371.09;18243218;32;20730;-54
2022/08/12 23:44:20;;;;;;;4.70;2.40;;;;;;;22.29;46.18;100346.91;18242674;32;20109;-54
2022/08/12 23:54:26;;;;;;;5.80;2.67;;;;;;;22.94;45.16;100344.38;18242956;32;20157;-54
